createdAt,value
2019-05-11T00:01:42.774Z,10.20
2019-05-11T00:04:15.212Z,10.30
2019-05-11T00:06:47.391Z,10.20
2019-05-11T00:09:19.647Z,10.20
2019-05-11T00:11:53.121Z,10.10
2019-05-11T00:14:25.490Z,10.10
2019-05-11T00:16:57.879Z,10.10
2019-05-11T00:19:29.779Z,10.20
2019-05-11T00:22:02.469Z,10.20
2019-05-11T00:24:34.362Z,10.20
2019-05-11T00:27:07.767Z,10.20
2019-05-11T00:29:39.657Z,10.30
2019-05-11T00:32:12.392Z,10.20
2019-05-11T00:34:44.670Z,10.30
2019-05-11T00:37:16.491Z,10.20
2019-05-11T00:39:48.263Z,10.30
2019-05-11T00:42:20.152Z,10.40
2019-05-11T00:44:51.938Z,10.40
2019-05-11T00:47:24.258Z,10.40
2019-05-11T00:49:56.505Z,10.40
2019-05-11T00:52:28.801Z,10.50
2019-05-11T00:55:00.678Z,10.50
2019-05-11T00:57:33.928Z,10.50
2019-05-11T01:00:06.783Z,10.50
2019-05-11T01:02:43.010Z,10.50
2019-05-11T01:05:15.036Z,10.50
2019-05-11T01:07:47.396Z,10.50
2019-05-11T01:10:25.585Z,10.60
2019-05-11T01:12:52.821Z,10.50
2019-05-11T01:15:25.231Z,10.50
2019-05-11T01:17:57.085Z,10.50
2019-05-11T01:20:28.902Z,10.50
2019-05-11T01:23:00.733Z,10.50
2019-05-11T01:25:32.599Z,10.50
2019-05-11T01:28:05.012Z,10.50
2019-05-11T01:30:38.747Z,10.50
2019-05-11T01:33:10.582Z,10.40
2019-05-11T01:35:42.459Z,10.40
2019-05-11T01:38:14.261Z,10.40
2019-05-11T01:40:58.021Z,10.40
2019-05-11T01:43:20.208Z,10.40
2019-05-11T01:45:53.497Z,10.40
2019-05-11T01:48:25.335Z,10.50
2019-05-11T01:50:57.709Z,10.50
2019-05-11T01:53:30.024Z,10.50
2019-05-11T01:56:01.968Z,10.50
2019-05-11T01:58:34.915Z,10.50
2019-05-11T02:01:07.997Z,10.50
2019-05-11T02:03:40.301Z,10.50
2019-05-11T02:06:12.568Z,10.50
2019-05-11T02:08:45.196Z,10.50
2019-05-11T02:11:17.099Z,10.60
2019-05-11T02:13:48.960Z,10.60
2019-05-11T02:16:21.331Z,10.50
2019-05-11T02:18:53.171Z,10.50
2019-05-11T02:21:25.026Z,10.50
2019-05-11T02:23:56.849Z,10.50
2019-05-11T02:26:29.271Z,10.50
2019-05-11T02:29:01.527Z,10.50
2019-05-11T02:31:34.129Z,10.40
2019-05-11T02:34:06.403Z,10.40
2019-05-11T02:36:38.239Z,10.50
2019-05-11T02:39:10.086Z,10.50
2019-05-11T02:41:41.940Z,10.50
2019-05-11T02:44:14.084Z,10.50
2019-05-11T02:46:45.972Z,10.50
2019-05-11T02:49:17.740Z,10.50
2019-05-11T02:51:49.742Z,10.30
2019-05-11T02:54:21.997Z,10.20
2019-05-11T02:56:54.244Z,10.20
2019-05-11T02:59:29.709Z,10.10
2019-05-11T03:01:59.550Z,10.10
2019-05-11T03:04:31.422Z,10.10
2019-05-11T03:07:03.221Z,10.10
2019-05-11T03:09:35.730Z,10.00
2019-05-11T03:12:07.658Z,10.00
2019-05-11T03:14:40.843Z,10.00
2019-05-11T03:17:16.407Z,10.00
2019-05-11T03:19:48.254Z,10.00
2019-05-11T03:22:20.155Z,10.00
2019-05-11T03:24:51.996Z,10.10
2019-05-11T03:27:26.521Z,10.00
2019-05-11T03:30:01.044Z,10.00
2019-05-11T03:32:32.220Z,10.00
2019-05-11T03:35:04.676Z,9.90
2019-05-11T03:37:36.493Z,9.90
2019-05-11T03:40:09.158Z,10.00
2019-05-11T03:42:41.519Z,9.90
2019-05-11T03:45:13.907Z,9.80
2019-05-11T03:47:45.794Z,9.80
2019-05-11T03:50:18.163Z,9.80
2019-05-11T03:52:50.039Z,9.80
2019-05-11T03:55:21.914Z,9.80
2019-05-11T03:57:54.093Z,9.80
2019-05-11T04:00:37.834Z,9.90
2019-05-11T04:03:09.643Z,9.90
2019-05-11T04:05:41.490Z,10.00
2019-05-11T04:08:13.433Z,9.90
2019-05-11T04:10:45.663Z,10.00
2019-05-11T04:13:17.561Z,10.00
2019-05-11T04:15:49.383Z,10.00
2019-05-11T04:18:21.225Z,10.00
2019-05-11T04:20:53.122Z,9.90
2019-05-11T04:23:24.902Z,9.90
2019-05-11T04:25:58.148Z,10.00
2019-05-11T04:28:30.976Z,10.00
2019-05-11T04:31:02.876Z,10.00
2019-05-11T04:33:34.695Z,10.10
2019-05-11T04:36:10.316Z,10.10
2019-05-11T04:38:42.553Z,10.20
2019-05-11T04:41:14.748Z,10.20
2019-05-11T04:43:46.681Z,10.20
2019-05-11T04:46:18.558Z,10.20
2019-05-11T04:48:50.505Z,10.30
2019-05-11T04:51:22.800Z,10.40
2019-05-11T04:53:55.110Z,10.50
2019-05-11T04:56:26.934Z,10.50
2019-05-11T04:58:58.862Z,10.60
2019-05-11T05:01:31.187Z,10.60
2019-05-11T05:04:13.874Z,10.60
2019-05-11T05:06:39.024Z,10.60
2019-05-11T05:09:11.012Z,10.70
2019-05-11T05:11:42.826Z,10.80
2019-05-11T05:14:14.594Z,10.90
2019-05-11T05:16:46.491Z,10.90
2019-05-11T05:19:18.350Z,11.00
2019-05-11T05:21:50.181Z,11.10
2019-05-11T05:24:22.095Z,11.10
2019-05-11T05:26:54.526Z,11.10
2019-05-11T05:29:26.874Z,11.10
2019-05-11T05:31:59.193Z,11.10
2019-05-11T05:37:44.074Z,11.00
2019-05-11T05:40:20.877Z,11.00
2019-05-11T05:42:52.717Z,11.00
2019-05-11T05:45:25.488Z,11.00
2019-05-11T05:47:57.819Z,11.10
2019-05-11T05:50:30.059Z,11.10
2019-05-11T05:53:03.154Z,11.20
2019-05-11T05:55:35.024Z,11.30
2019-05-11T05:58:06.880Z,11.40
2019-05-11T06:00:38.701Z,11.50
2019-05-11T06:03:10.554Z,11.70
2019-05-11T06:05:43.404Z,11.80
2019-05-11T06:08:15.759Z,12.00
2019-05-11T06:10:47.563Z,12.30
2019-05-11T06:13:19.344Z,12.40
2019-05-11T06:15:51.111Z,12.60
2019-05-11T06:18:25.872Z,12.80
2019-05-11T06:20:58.777Z,13.10
2019-05-11T06:23:30.567Z,13.30
2019-05-11T06:26:02.771Z,13.50
2019-05-11T06:28:34.668Z,13.60
2019-05-11T06:31:06.604Z,13.80
2019-05-11T06:33:42.400Z,14.10
2019-05-11T06:36:14.183Z,14.50
2019-05-11T06:38:46.303Z,14.60
2019-05-11T06:41:18.378Z,14.50
2019-05-11T06:44:01.239Z,14.40
2019-05-11T06:46:23.890Z,14.40
2019-05-11T06:48:55.745Z,14.40
2019-05-11T06:51:27.543Z,14.40
2019-05-11T06:53:59.835Z,14.40
2019-05-11T06:56:37.084Z,14.40
2019-05-11T06:59:09.014Z,14.30
2019-05-11T07:01:41.383Z,14.30
2019-05-11T07:04:13.725Z,14.10
2019-05-11T07:06:45.524Z,13.90
2019-05-11T07:09:17.614Z,13.60
2019-05-11T07:11:51.484Z,13.50
2019-05-11T07:14:23.735Z,13.50
2019-05-11T07:16:55.623Z,13.40
2019-05-11T07:19:27.438Z,13.40
2019-05-11T07:21:59.316Z,13.30
2019-05-11T07:24:34.003Z,13.20
2019-05-11T07:27:06.256Z,13.20
2019-05-11T07:29:38.215Z,13.30
2019-05-11T07:32:22.460Z,13.40
2019-05-11T07:34:43.559Z,13.70
2019-05-11T07:37:15.807Z,14.20
2019-05-11T07:39:48.750Z,14.80
2019-05-11T07:42:20.672Z,15.20
2019-05-11T07:44:52.441Z,15.70
2019-05-11T07:47:27.720Z,16.10
2019-05-11T07:49:58.900Z,16.60
2019-05-11T07:52:30.758Z,17.20
2019-05-11T07:55:02.611Z,17.70
2019-05-11T07:57:35.771Z,18.30
2019-05-11T08:00:09.555Z,18.80
2019-05-11T08:02:41.391Z,19.30
2019-05-11T08:05:13.487Z,19.80
2019-05-11T08:07:47.917Z,20.10
2019-05-11T08:10:20.462Z,20.20
2019-05-11T08:12:52.734Z,20.00
2019-05-11T08:15:24.526Z,19.60
2019-05-11T08:17:57.834Z,19.40
2019-05-11T08:20:29.797Z,19.30
2019-05-11T08:23:02.074Z,19.20
2019-05-11T08:25:34.947Z,19.30
2019-05-11T08:28:11.877Z,19.70
2019-05-11T08:30:40.622Z,20.00
2019-05-11T08:33:12.419Z,20.00
2019-05-11T08:35:44.609Z,19.80
2019-05-11T08:38:18.022Z,19.60
2019-05-11T08:40:49.794Z,19.50
2019-05-11T08:43:22.028Z,19.50
2019-05-11T08:45:54.251Z,19.50
2019-05-11T08:48:28.197Z,19.60
2019-05-11T08:50:59.508Z,19.70
2019-05-11T08:53:31.693Z,19.80
2019-05-11T08:56:03.977Z,19.80
2019-05-11T08:58:37.813Z,19.80
2019-05-11T09:01:09.206Z,20.10
2019-05-11T09:03:47.917Z,20.50
2019-05-11T09:06:19.784Z,20.90
2019-05-11T09:08:51.610Z,21.20
2019-05-11T09:11:24.304Z,21.30
2019-05-11T09:13:57.848Z,21.70
2019-05-11T09:16:30.319Z,22.10
2019-05-11T09:19:02.495Z,22.40
2019-05-11T09:21:34.282Z,22.30
2019-05-11T09:24:08.216Z,22.10
2019-05-11T09:26:39.620Z,22.00
2019-05-11T09:29:11.365Z,21.70
2019-05-11T09:31:45.164Z,21.70
2019-05-11T09:34:18.234Z,21.70
2019-05-11T09:36:50.114Z,22.00
2019-05-11T09:39:22.073Z,22.10
2019-05-11T09:41:54.310Z,22.00
2019-05-11T09:44:28.889Z,21.80
2019-05-11T09:47:02.850Z,21.50
2019-05-11T09:49:47.084Z,21.20
2019-05-11T09:52:09.059Z,21.00
2019-05-11T09:54:42.767Z,20.70
2019-05-11T09:57:14.642Z,20.40
2019-05-11T09:59:47.803Z,20.20
2019-05-11T10:02:21.124Z,19.90
2019-05-11T10:04:53.194Z,19.60
2019-05-11T10:07:25.364Z,19.40
2019-05-11T10:09:58.356Z,19.20
2019-05-11T10:12:31.057Z,19.00
2019-05-11T10:15:03.178Z,18.90
2019-05-11T10:17:35.112Z,18.70
2019-05-11T10:20:09.499Z,18.40
2019-05-11T10:22:41.541Z,17.90
2019-05-11T10:25:14.258Z,17.20
2019-05-11T10:27:48.196Z,16.40
2019-05-11T10:30:20.554Z,15.80
2019-05-11T10:32:53.334Z,15.30
2019-05-11T10:35:25.179Z,14.90
2019-05-11T10:37:58.299Z,14.90
2019-05-11T10:40:30.754Z,15.20
2019-05-11T10:43:03.022Z,15.70
2019-05-11T10:45:37.738Z,16.00
2019-05-11T10:48:09.087Z,16.30
2019-05-11T10:50:41.279Z,16.80
2019-05-11T10:53:13.111Z,17.20
2019-05-11T10:55:47.793Z,17.60
2019-05-11T10:58:18.703Z,17.90
2019-05-11T11:00:50.959Z,18.40
2019-05-11T11:03:23.583Z,19.00
2019-05-11T11:05:55.430Z,19.40
2019-05-11T11:08:27.847Z,19.70
2019-05-11T11:10:59.846Z,20.20
2019-05-11T11:13:32.111Z,20.40
2019-05-11T11:16:03.876Z,20.30
2019-05-11T11:18:38.086Z,20.20
2019-05-11T11:21:21.766Z,20.10
2019-05-11T11:23:49.360Z,20.10
2019-05-11T11:26:21.051Z,20.00
2019-05-11T11:28:53.947Z,19.90
2019-05-11T11:31:25.811Z,20.10
2019-05-11T11:33:58.604Z,20.60
2019-05-11T11:36:30.855Z,21.00
2019-05-11T11:39:03.771Z,21.10
2019-05-11T11:41:37.754Z,21.20
2019-05-11T11:44:09.189Z,21.30
2019-05-11T11:46:52.152Z,21.20
2019-05-11T11:49:14.811Z,21.20
2019-05-11T11:51:48.439Z,21.40
2019-05-11T11:54:20.346Z,22.00
2019-05-11T11:56:52.634Z,22.50
2019-05-11T11:59:24.479Z,23.10
2019-05-11T12:01:58.144Z,23.50
2019-05-11T12:04:35.829Z,23.70
2019-05-11T12:07:08.453Z,23.60
2019-05-11T12:09:41.430Z,23.30
2019-05-11T12:12:13.272Z,22.80
2019-05-11T12:14:45.113Z,22.00
2019-05-11T12:17:18.167Z,21.30
2019-05-11T12:19:50.719Z,20.80
2019-05-11T12:22:22.463Z,20.60
2019-05-11T12:24:58.754Z,20.60
2019-05-11T12:27:30.961Z,20.80
2019-05-11T12:30:03.114Z,21.10
2019-05-11T12:32:43.340Z,21.60
2019-05-11T12:35:17.800Z,22.10
2019-05-11T12:37:49.824Z,22.50
2019-05-11T12:40:22.550Z,22.20
2019-05-11T12:42:54.746Z,21.80
2019-05-11T12:45:29.379Z,21.50
2019-05-11T12:48:00.804Z,21.20
2019-05-11T12:50:32.716Z,20.90
2019-05-11T12:53:05.131Z,20.90
2019-05-11T12:55:37.968Z,20.90
2019-05-11T12:58:10.609Z,21.00
2019-05-11T13:00:42.373Z,20.80
2019-05-11T13:03:14.225Z,20.50
2019-05-11T13:05:48.384Z,20.60
2019-05-11T13:08:20.116Z,20.70
2019-05-11T13:10:52.482Z,21.00
2019-05-11T13:13:24.210Z,21.20
2019-05-11T13:15:58.326Z,21.50
2019-05-11T13:18:30.728Z,21.50
2019-05-11T13:21:03.017Z,21.50
2019-05-11T13:23:35.399Z,21.40
2019-05-11T13:26:08.697Z,21.40
2019-05-11T13:28:41.162Z,21.50
2019-05-11T13:31:13.510Z,21.70
2019-05-11T13:33:47.939Z,22.00
2019-05-11T13:36:19.678Z,21.90
2019-05-11T13:38:51.454Z,21.40
2019-05-11T13:41:23.883Z,21.20
2019-05-11T13:43:57.572Z,21.20
2019-05-11T13:46:29.582Z,21.30
2019-05-11T13:49:01.454Z,21.40
2019-05-11T13:51:33.319Z,21.20
2019-05-11T13:54:07.735Z,20.90
2019-05-11T13:56:39.284Z,20.70
2019-05-11T13:59:11.076Z,20.70
2019-05-11T14:01:43.898Z,20.50
2019-05-11T14:04:18.182Z,20.20
2019-05-11T14:06:49.594Z,19.60
2019-05-11T14:09:22.384Z,19.30
2019-05-11T14:11:54.583Z,19.20
2019-05-11T14:14:28.158Z,19.40
2019-05-11T14:17:00.306Z,19.70
2019-05-11T14:19:32.503Z,20.10
2019-05-11T14:22:04.367Z,20.20
2019-05-11T14:24:37.617Z,20.30
2019-05-11T14:27:10.151Z,20.60
2019-05-11T14:29:41.934Z,21.00
2019-05-11T14:32:14.273Z,21.30
2019-05-11T14:34:48.433Z,21.40
2019-05-11T14:37:20.724Z,21.40
2019-05-11T14:39:52.563Z,21.40
2019-05-11T14:42:24.814Z,21.20
2019-05-11T14:44:58.805Z,20.70
2019-05-11T14:47:31.502Z,19.60
2019-05-11T14:50:04.810Z,18.80
2019-05-11T14:52:38.881Z,18.20
2019-05-11T14:55:10.845Z,17.60
2019-05-11T14:57:43.228Z,17.20
2019-05-11T15:00:16.202Z,16.90
2019-05-11T15:02:50.162Z,16.50
2019-05-11T15:05:22.537Z,16.20
2019-05-11T15:07:58.230Z,16.10
2019-05-11T15:10:30.216Z,16.00
2019-05-11T15:13:02.102Z,16.10
2019-05-11T15:15:34.365Z,16.00
2019-05-11T15:18:11.565Z,16.00
2019-05-11T15:20:43.395Z,16.00
2019-05-11T15:23:15.279Z,16.00
2019-05-11T15:25:53.594Z,16.10
2019-05-11T15:31:27.842Z,16.20
2019-05-11T15:34:18.604Z,16.10
2019-05-11T15:36:50.655Z,16.00
2019-05-11T15:42:19.977Z,16.00
2019-05-11T15:44:52.351Z,16.10
2019-05-11T15:47:24.237Z,16.10
2019-05-11T15:49:57.893Z,16.00
2019-05-11T15:52:30.379Z,16.00
2019-05-11T15:55:02.520Z,16.10
2019-05-11T15:57:40.377Z,16.00
2019-05-11T16:00:13.959Z,15.90
2019-05-11T16:02:49.969Z,15.90
2019-05-11T16:05:22.303Z,15.90
2019-05-11T16:07:58.854Z,16.00
2019-05-11T16:10:31.658Z,16.10
2019-05-11T16:13:06.003Z,16.20
2019-05-11T16:15:38.385Z,16.20
2019-05-11T16:18:13.556Z,16.20
2019-05-11T16:20:49.947Z,16.20
2019-05-11T16:23:22.379Z,16.10
2019-05-11T16:25:58.247Z,16.00
2019-05-11T16:28:31.592Z,16.00
2019-05-11T16:31:03.439Z,15.90
2019-05-11T16:33:35.340Z,15.90
2019-05-11T16:36:09.024Z,15.80
2019-05-11T16:38:48.362Z,15.70
2019-05-11T16:41:21.127Z,15.60
2019-05-11T16:43:53.048Z,15.60
2019-05-11T16:46:25.311Z,15.50
2019-05-11T16:48:58.058Z,15.50
2019-05-11T16:51:30.374Z,15.50
2019-05-11T16:54:06.981Z,15.60
2019-05-11T16:56:38.811Z,15.60
2019-05-11T16:59:11.163Z,15.80
2019-05-11T17:01:43.431Z,15.90
2019-05-11T17:04:15.301Z,15.90
2019-05-11T17:06:48.648Z,16.00
2019-05-11T17:09:20.668Z,16.00
2019-05-11T17:11:53.332Z,16.00
2019-05-11T17:14:28.041Z,16.00
2019-05-11T17:16:59.512Z,16.10
2019-05-11T17:19:42.938Z,16.20
2019-05-11T17:22:05.358Z,16.20
2019-05-11T17:24:37.990Z,16.20
2019-05-11T17:27:10.366Z,16.20
2019-05-11T17:29:51.999Z,16.10
2019-05-11T17:32:26.126Z,16.00
2019-05-11T17:34:58.195Z,15.90
2019-05-11T17:37:30.124Z,15.70
2019-05-11T17:40:02.325Z,15.70
2019-05-11T17:42:34.595Z,15.60
2019-05-11T17:45:08.209Z,15.50
2019-05-11T17:47:41.117Z,15.40
2019-05-11T17:50:13.543Z,15.30
2019-05-11T17:52:48.043Z,15.20
2019-05-11T17:55:20.569Z,15.10
2019-05-11T17:57:54.021Z,15.00
2019-05-11T18:00:28.307Z,14.90
2019-05-11T18:03:00.735Z,14.90
2019-05-11T18:05:32.631Z,14.90
2019-05-11T18:08:04.331Z,14.80
2019-05-11T18:10:38.311Z,14.80
2019-05-11T18:13:09.605Z,14.70
2019-05-11T18:15:41.907Z,14.60
2019-05-11T18:18:14.284Z,14.60
2019-05-11T18:20:48.480Z,14.60
2019-05-11T18:23:20.377Z,14.50
2019-05-11T18:25:52.666Z,14.40
2019-05-11T18:28:25.298Z,14.20
2019-05-11T18:31:03.087Z,14.20
2019-05-11T18:33:38.040Z,14.10
2019-05-11T18:36:09.583Z,14.00
2019-05-11T18:38:41.904Z,13.90
2019-05-11T18:41:13.705Z,13.80
2019-05-11T18:43:48.176Z,13.70
2019-05-11T18:46:19.427Z,13.70
2019-05-11T18:48:51.264Z,13.60
2019-05-11T18:51:23.053Z,13.60
2019-05-11T18:53:58.552Z,13.60
2019-05-11T18:56:30.871Z,13.60
2019-05-11T18:59:03.110Z,13.50
2019-05-11T19:01:37.839Z,13.40
2019-05-11T19:04:08.915Z,13.40
2019-05-11T19:06:41.713Z,13.30
2019-05-11T19:09:13.535Z,13.30
2019-05-11T19:11:45.424Z,13.20
2019-05-11T19:14:17.255Z,13.20
2019-05-11T19:16:49.256Z,13.10
2019-05-11T19:19:23.018Z,13.00
2019-05-11T19:21:54.928Z,13.00
2019-05-11T19:24:27.811Z,12.90
2019-05-11T19:27:00.262Z,12.80
2019-05-11T19:29:32.118Z,12.70
2019-05-11T19:32:04.421Z,12.70
2019-05-11T19:34:38.291Z,12.70
2019-05-11T19:37:10.191Z,12.60
2019-05-11T19:39:42.510Z,12.50
2019-05-11T19:42:14.377Z,12.30
2019-05-11T19:44:47.938Z,12.10
2019-05-11T19:47:21.070Z,12.00
2019-05-11T19:50:04.563Z,11.80
2019-05-11T19:52:36.986Z,11.70
2019-05-11T19:55:09.291Z,11.60
2019-05-11T19:57:41.240Z,11.60
2019-05-11T20:00:18.166Z,11.50
2019-05-11T20:02:50.835Z,11.50
2019-05-11T20:05:22.745Z,11.50
2019-05-11T20:07:54.705Z,11.50
2019-05-11T20:10:27.810Z,11.50
2019-05-11T20:13:00.671Z,11.40
2019-05-11T20:15:32.832Z,11.40
2019-05-11T20:18:07.776Z,11.50
2019-05-11T20:20:38.827Z,11.50
2019-05-11T20:23:10.706Z,11.50
2019-05-11T20:25:43.014Z,11.50
2019-05-11T20:28:15.343Z,11.50
2019-05-11T20:30:48.304Z,11.50
2019-05-11T20:33:20.634Z,11.40
2019-05-11T20:35:53.007Z,11.30
2019-05-11T20:38:24.891Z,11.20
2019-05-11T20:40:57.782Z,11.10
2019-05-11T20:43:31.450Z,11.10
2019-05-11T20:46:03.295Z,11.00
2019-05-11T20:48:38.270Z,10.90
2019-05-11T20:51:10.204Z,10.80
2019-05-11T20:53:46.195Z,10.80
2019-05-11T20:56:17.809Z,10.80
2019-05-11T20:58:59.547Z,10.70
2019-05-11T21:01:30.718Z,10.70
2019-05-11T21:04:02.608Z,10.60
2019-05-11T21:06:34.490Z,10.60
2019-05-11T21:09:08.862Z,10.60
2019-05-11T21:11:41.149Z,10.50
2019-05-11T21:14:13.505Z,10.50
2019-05-11T21:16:47.712Z,10.40
2019-05-11T21:19:19.735Z,10.40
2019-05-11T21:21:53.973Z,10.40
2019-05-11T21:24:28.110Z,10.30
2019-05-11T21:27:01.039Z,10.30
2019-05-11T21:29:33.351Z,10.20
2019-05-11T21:32:05.258Z,10.20
2019-05-11T21:34:38.372Z,10.10
2019-05-11T21:37:10.291Z,10.00
2019-05-11T21:39:42.193Z,10.00
2019-05-11T21:42:14.473Z,9.90
2019-05-11T21:44:46.227Z,9.90
2019-05-11T21:47:18.459Z,9.80
2019-05-11T21:49:50.299Z,9.80
2019-05-11T21:52:22.219Z,9.80
2019-05-11T21:54:54.127Z,9.80
2019-05-11T21:57:27.904Z,9.80
2019-05-11T22:00:00.621Z,9.80
2019-05-11T22:02:40.571Z,9.90
2019-05-11T22:05:12.514Z,9.90
2019-05-11T22:07:44.840Z,9.90
2019-05-11T22:10:17.759Z,9.80
2019-05-11T22:12:49.726Z,9.80
2019-05-11T22:15:22.620Z,9.80
2019-05-11T22:17:58.412Z,9.70
2019-05-11T22:20:30.184Z,9.70
2019-05-11T22:23:02.047Z,9.70
2019-05-11T22:25:33.899Z,9.70
2019-05-11T22:28:08.193Z,9.70
2019-05-11T22:30:40.550Z,9.60
2019-05-11T22:33:12.983Z,9.60
2019-05-11T22:35:45.374Z,9.60
2019-05-11T22:38:17.247Z,9.50
2019-05-11T22:40:48.981Z,9.60
2019-05-11T22:43:22.162Z,9.60
2019-05-11T22:45:54.551Z,9.50
2019-05-11T22:48:26.815Z,9.50
2019-05-11T22:50:59.170Z,9.50
2019-05-11T22:53:43.903Z,9.50
2019-05-11T22:56:06.087Z,9.60
2019-05-11T22:58:37.971Z,9.60
2019-05-11T23:01:10.181Z,9.50
2019-05-11T23:03:42.039Z,9.50
2019-05-11T23:06:14.309Z,9.50
2019-05-11T23:08:48.305Z,9.50
2019-05-11T23:11:20.479Z,9.40
2019-05-11T23:13:52.783Z,9.40
2019-05-11T23:16:25.167Z,9.40
2019-05-11T23:18:56.969Z,9.40
2019-05-11T23:21:30.403Z,9.40
2019-05-11T23:24:03.553Z,9.30
2019-05-11T23:26:35.460Z,9.20
2019-05-11T23:29:08.149Z,9.20
2019-05-11T23:31:40.165Z,9.10
2019-05-11T23:34:12.021Z,9.20
2019-05-11T23:36:43.912Z,9.20
2019-05-11T23:39:17.682Z,9.10
2019-05-11T23:41:49.829Z,9.10
2019-05-11T23:44:22.073Z,9.10
2019-05-11T23:46:54.466Z,9.00
2019-05-11T23:49:26.765Z,9.00
2019-05-11T23:51:58.527Z,9.00
2019-05-11T23:54:30.757Z,8.90
2019-05-11T23:57:02.579Z,8.80
2019-05-11T23:59:34.428Z,8.80
